Time;durP1;ratioP1;P1;durP2;ratioP2;P2;SDS_P1;SDS_P2;PMS_P1;PMS_P2;Temp;Humidity;BMP_temperature;BMP_pressure;BME280_temperature;BME280_humidity;BME280_pressure;Samples;Min_cycle;Max_cycle;Signal;HPM_P1;HPM_P2
2022/04/11 00:07:52;;;;;;;14.20;6.85;;;3.70;99.90;;;;;;4752998;30;20101;-73
2022/04/11 00:10:20;;;;;;;10.05;5.25;;;3.60;99.90;;;;;;4774365;30;20223;-74
2022/04/11 00:13:21;;;;;;;11.13;5.35;;;3.60;99.90;;;;;;4845964;29;20057;-73
2022/04/11 00:16:07;;;;;;;11.27;5.03;;;3.60;99.90;;;;;;4933413;29;20055;-73
2022/04/11 00:18:42;;;;;;;10.07;5.10;;;3.60;99.90;;;;;;4921949;29;20055;-73
2022/04/11 00:21:10;;;;;;;18.75;5.57;;;3.70;99.90;;;;;;4926377;28;20070;-73
2022/04/11 00:23:39;;;;;;;9.98;5.80;;;3.50;99.90;;;;;;4975792;28;20050;-73
2022/04/11 00:26:06;;;;;;;13.07;6.53;;;3.60;99.90;;;;;;5039810;28;20059;-73
2022/04/11 00:28:38;;;;;;;10.65;5.35;;;3.60;99.90;;;;;;5057115;28;20427;-73
2022/04/11 00:31:10;;;;;;;15.68;6.47;;;3.60;99.90;;;;;;5057196;28;20037;-73
2022/04/11 00:33:36;;;;;;;11.52;5.45;;;3.60;99.90;;;;;;5056534;28;20078;-73
2022/04/11 00:36:01;;;;;;;14.15;5.78;;;3.60;99.90;;;;;;5057184;28;20033;-73
2022/04/11 00:38:27;;;;;;;9.93;5.47;;;3.50;99.90;;;;;;5022267;28;20120;-73
2022/04/11 00:40:55;;;;;;;11.23;5.22;;;3.50;99.90;;;;;;5056847;28;20033;-73
2022/04/11 00:43:38;;;;;;;10.55;5.78;;;3.50;99.90;;;;;;5056670;28;20052;-73
2022/04/11 00:46:05;;;;;;;14.80;6.47;;;3.50;99.90;;;;;;5038370;28;20048;-73
2022/04/11 00:48:34;;;;;;;13.38;5.35;;;3.50;99.90;;;;;;5038895;28;20105;-73
2022/04/11 00:51:21;;;;;;;11.40;5.97;;;3.50;99.90;;;;;;5056474;28;20094;-73
2022/04/11 00:53:56;;;;;;;11.45;5.85;;;3.50;99.90;;;;;;5022804;28;20083;-74
2022/04/11 00:56:24;;;;;;;10.02;5.65;;;3.50;99.90;;;;;;5056041;28;20427;-73
2022/04/11 00:58:57;;;;;;;11.80;6.18;;;3.40;99.90;;;;;;5039379;28;20127;-73
2022/04/11 01:01:25;;;;;;;8.95;5.20;;;3.40;99.90;;;;;;5056211;28;20040;-73
2022/04/11 01:03:51;;;;;;;9.43;5.30;;;3.40;99.90;;;;;;5056090;28;20041;-73
2022/04/11 01:06:20;;;;;;;12.50;6.32;;;3.40;99.90;;;;;;5056394;28;20040;-73
2022/04/11 01:08:48;;;;;;;8.40;4.80;;;3.40;99.90;;;;;;5055497;28;20132;-74
2022/04/11 01:11:16;;;;;;;10.05;5.22;;;3.40;99.90;;;;;;5055782;28;20106;-73
2022/04/11 01:13:42;;;;;;;11.48;5.75;;;3.40;99.90;;;;;;5055636;28;20040;-73
2022/04/11 01:16:07;;;;;;;8.43;5.22;;;3.30;99.90;;;;;;5055385;28;20462;-73
2022/04/11 01:18:34;;;;;;;10.85;5.20;;;3.30;99.90;;;;;;5055493;28;20029;-73
2022/04/11 01:21:00;;;;;;;11.85;5.95;;;3.30;99.90;;;;;;5038264;28;20047;-73
2022/04/11 01:23:26;;;;;;;10.88;5.30;;;3.30;99.90;;;;;;5055908;28;20045;-73
2022/04/11 01:25:56;;;;;;;8.65;5.25;;;3.20;99.90;;;;;;5055053;28;20128;-73
2022/04/11 01:28:23;;;;;;;11.65;5.45;;;3.20;99.90;;;;;;5037897;28;20040;-73
2022/04/11 01:30:53;;;;;;;8.63;5.60;;;3.20;99.90;;;;;;5038151;28;20041;-73
2022/04/11 01:33:26;;;;;;;14.98;5.13;;;3.20;99.90;;;;;;5037683;28;20044;-73
2022/04/11 01:35:52;;;;;;;10.50;5.87;;;3.20;99.90;;;;;;5055653;28;20083;-73
2022/04/11 01:38:18;;;;;;;13.57;4.97;;;3.20;99.90;;;;;;5055392;28;20320;-73
2022/04/11 01:40:54;;;;;;;11.65;5.40;;;3.20;99.90;;;;;;5038592;28;20052;-73
2022/04/11 01:43:21;;;;;;;9.73;5.03;;;3.20;99.90;;;;;;5055181;28;20390;-73
2022/04/11 01:45:47;;;;;;;10.05;5.30;;;3.10;99.90;;;;;;5055232;28;20041;-73
2022/04/11 01:48:15;;;;;;;8.85;5.05;;;3.10;99.90;;;;;;5055513;28;20355;-73
2022/04/11 01:50:40;;;;;;;10.20;5.25;;;3.10;99.90;;;;;;5021492;28;20146;-73
2022/04/11 01:53:08;;;;;;;8.95;5.10;;;3.10;99.90;;;;;;5055145;28;20064;-73
2022/04/11 01:55:34;;;;;;;8.88;4.93;;;3.10;99.90;;;;;;5055116;28;20481;-73
2022/04/11 01:58:00;;;;;;;11.50;5.10;;;3.10;99.90;;;;;;5037251;28;20125;-73
2022/04/11 02:00:28;;;;;;;8.65;5.32;;;3.10;99.90;;;;;;5034571;28;20170;-73
2022/04/11 02:02:56;;;;;;;12.15;5.35;;;3.10;99.90;;;;;;5035020;28;20045;-73
2022/04/11 02:05:21;;;;;;;11.15;5.40;;;3.10;99.90;;;;;;5034963;28;20502;-74
2022/04/11 02:07:49;;;;;;;10.68;5.80;;;3.10;99.90;;;;;;5021241;28;20073;-74
2022/04/11 02:10:15;;;;;;;10.00;5.75;;;3.10;99.90;;;;;;5055161;28;20037;-74
2022/04/11 02:12:41;;;;;;;6.88;4.75;;;3.10;99.90;;;;;;5055119;28;20040;-74
2022/04/11 02:15:08;;;;;;;8.95;5.50;;;3.00;99.90;;;;;;5054820;28;20080;-74
2022/04/11 02:17:33;;;;;;;9.23;5.53;;;3.00;99.90;;;;;;5055028;28;20045;-74
2022/04/11 02:19:59;;;;;;;12.43;5.60;;;3.00;99.90;;;;;;5054981;28;20036;-74
2022/04/11 02:22:25;;;;;;;10.65;5.30;;;3.00;99.90;;;;;;5037032;28;20128;-74
2022/04/11 02:24:50;;;;;;;15.35;6.47;;;3.00;99.90;;;;;;5037118;28;20033;-73
2022/04/11 02:27:16;;;;;;;9.30;5.10;;;2.90;99.90;;;;;;5054706;28;20090;-73
2022/04/11 02:29:42;;;;;;;7.68;5.55;;;2.90;99.90;;;;;;5036877;28;20056;-73
2022/04/11 02:32:07;;;;;;;10.75;5.43;;;3.00;99.90;;;;;;5037565;28;20049;-73
2022/04/11 02:34:33;;;;;;;8.23;5.45;;;3.00;99.90;;;;;;5053810;28;20332;-74
2022/04/11 02:36:59;;;;;;;11.75;5.30;;;2.90;99.90;;;;;;5053600;28;20049;-73
2022/04/11 02:39:24;;;;;;;10.20;5.65;;;2.90;99.90;;;;;;5054438;28;20072;-73
2022/04/11 02:41:50;;;;;;;8.98;5.35;;;2.90;99.90;;;;;;5037161;28;20115;-74
2022/04/11 02:44:16;;;;;;;10.70;5.35;;;2.90;99.90;;;;;;5054338;28;20071;-74
2022/04/11 02:46:44;;;;;;;9.10;4.88;;;2.90;99.90;;;;;;5054291;28;20041;-74
2022/04/11 02:49:10;;;;;;;10.05;5.22;;;2.90;99.90;;;;;;5054366;28;20475;-73
2022/04/11 02:51:35;;;;;;;9.27;5.30;;;2.90;99.90;;;;;;5054485;28;20041;-74
2022/04/11 02:54:07;;;;;;;7.93;5.20;;;2.80;99.90;;;;;;5054176;28;20056;-73
2022/04/11 02:56:33;;;;;;;8.98;5.20;;;2.90;99.90;;;;;;5037268;28;20455;-73
2022/04/11 02:59:01;;;;;;;8.93;5.30;;;2.90;99.90;;;;;;5054550;28;20080;-73
2022/04/11 03:01:27;;;;;;;8.98;5.10;;;2.90;99.90;;;;;;5054469;28;20473;-74
2022/04/11 03:03:55;;;;;;;7.70;5.38;;;2.90;99.90;;;;;;5054428;28;20316;-73
2022/04/11 03:06:20;;;;;;;8.15;5.20;;;2.90;99.90;;;;;;5053973;28;20071;-73
2022/04/11 03:08:46;;;;;;;7.50;5.18;;;2.90;99.90;;;;;;5020106;28;20099;-73
2022/04/11 03:11:11;;;;;;;8.93;5.40;;;3.00;99.90;;;;;;5054679;28;20415;-73
2022/04/11 03:13:37;;;;;;;12.95;5.53;;;3.00;99.90;;;;;;5036660;28;20041;-74
2022/04/11 03:16:03;;;;;;;9.65;5.25;;;3.00;99.90;;;;;;5002959;28;20128;-74
2022/04/11 03:18:28;;;;;;;13.77;5.93;;;3.10;99.90;;;;;;5036809;28;20029;-73
2022/04/11 03:20:56;;;;;;;7.60;5.20;;;3.10;99.90;;;;;;5053970;28;20045;-73
2022/04/11 03:23:22;;;;;;;7.40;4.70;;;3.20;99.90;;;;;;5053920;28;20406;-73
2022/04/11 03:25:48;;;;;;;8.15;5.15;;;3.20;99.90;;;;;;5036595;28;20036;-73
2022/04/11 03:28:14;;;;;;;9.60;5.35;;;3.30;99.90;;;;;;5054304;28;20041;-73
2022/04/11 03:30:39;;;;;;;8.82;5.63;;;3.30;99.90;;;;;;5054181;28;20055;-74
2022/04/11 03:33:05;;;;;;;9.85;5.22;;;3.30;99.90;;;;;;5054147;28;20460;-73
2022/04/11 03:35:31;;;;;;;10.23;5.43;;;3.40;99.90;;;;;;5053614;28;20044;-73
2022/04/11 03:37:56;;;;;;;10.32;5.28;;;3.50;99.90;;;;;;5036376;28;20413;-74
2022/04/11 03:40:22;;;;;;;11.75;5.35;;;3.60;99.90;;;;;;5036371;28;20530;-73
2022/04/11 03:42:47;;;;;;;8.80;5.18;;;3.60;99.90;;;;;;5053869;28;20140;-74
2022/04/11 03:45:13;;;;;;;8.23;5.15;;;3.70;99.90;;;;;;5053810;28;20048;-73
2022/04/11 03:47:38;;;;;;;9.68;5.25;;;3.70;99.90;;;;;;5053877;28;20045;-73
2022/04/11 03:50:04;;;;;;;8.48;5.10;;;3.80;99.90;;;;;;5023383;28;20128;-73
2022/04/11 03:52:30;;;;;;;9.05;5.45;;;3.80;99.90;;;;;;5057631;28;20045;-74
2022/04/11 03:54:56;;;;;;;7.90;4.75;;;3.80;99.90;;;;;;5057459;28;20332;-73
2022/04/11 03:57:22;;;;;;;9.23;5.40;;;3.90;99.90;;;;;;5040079;28;20406;-74
2022/04/11 03:59:47;;;;;;;11.45;5.05;;;3.80;99.90;;;;;;5039892;28;20056;-73
2022/04/11 04:02:13;;;;;;;11.13;5.53;;;3.90;99.90;;;;;;5057317;28;20041;-74
2022/04/11 04:04:38;;;;;;;9.88;5.65;;;3.90;99.90;;;;;;5057111;28;20033;-73
2022/04/11 04:07:06;;;;;;;7.43;5.18;;;3.90;99.90;;;;;;5040089;28;20120;-73
2022/04/11 04:09:32;;;;;;;8.25;4.65;;;4.00;99.90;;;;;;5056600;28;20048;-73
2022/04/11 04:12:00;;;;;;;10.02;5.03;;;4.00;99.90;;;;;;5057035;28;20099;-74
2022/04/11 04:14:26;;;;;;;6.00;4.28;;;4.00;99.90;;;;;;5056752;28;20048;-73
2022/04/11 04:16:52;;;;;;;8.57;5.00;;;4.10;99.90;;;;;;5056969;28;20854;-74
2022/04/11 04:19:19;;;;;;;6.97;4.50;;;4.10;99.90;;;;;;5057068;28;20037;-73
2022/04/11 04:21:45;;;;;;;7.60;4.97;;;4.10;99.90;;;;;;5056634;28;20032;-73
2022/04/11 04:24:10;;;;;;;7.68;4.85;;;4.20;99.90;;;;;;5057386;28;20086;-74
2022/04/11 04:26:36;;;;;;;10.07;4.95;;;4.20;99.90;;;;;;5057056;28;20041;-73
2022/04/11 04:29:02;;;;;;;10.45;5.85;;;4.20;99.90;;;;;;5056795;28;20041;-74
2022/04/11 04:31:27;;;;;;;8.73;4.72;;;4.20;99.90;;;;;;5056824;28;20064;-74
2022/04/11 04:33:54;;;;;;;8.30;4.47;;;4.20;99.90;;;;;;5056790;28;20373;-73
2022/04/11 04:36:19;;;;;;;8.18;4.30;;;4.20;99.90;;;;;;5038971;28;20128;-73
2022/04/11 04:38:45;;;;;;;7.70;4.63;;;4.20;99.90;;;;;;5056738;28;20128;-74
2022/04/11 04:41:10;;;;;;;10.18;4.93;;;4.30;99.90;;;;;;5056977;28;20095;-73
2022/04/11 04:43:36;;;;;;;10.65;5.30;;;4.30;99.90;;;;;;5055899;28;20138;-74
2022/04/11 04:46:04;;;;;;;9.95;4.82;;;4.30;99.90;;;;;;5056567;28;20048;-73
2022/04/11 04:48:30;;;;;;;8.25;4.75;;;4.30;99.90;;;;;;5039043;28;20098;-73
2022/04/11 04:50:56;;;;;;;9.35;4.88;;;4.40;99.90;;;;;;5056634;28;20386;-73
2022/04/11 04:53:22;;;;;;;7.90;4.80;;;4.30;99.90;;;;;;5038635;28;20076;-73
2022/04/11 04:55:48;;;;;;;10.98;4.68;;;4.30;99.90;;;;;;5056628;28;20080;-73
2022/04/11 04:58:13;;;;;;;10.50;5.03;;;4.30;99.90;;;;;;5053690;28;20050;-74
2022/04/11 05:00:39;;;;;;;8.02;4.82;;;4.30;99.90;;;;;;5054595;28;20041;-74
2022/04/11 05:03:04;;;;;;;8.73;4.25;;;4.40;99.90;;;;;;5055514;28;20032;-73
2022/04/11 05:05:30;;;;;;;9.40;4.72;;;4.40;99.90;;;;;;5055930;28;20032;-74
2022/04/11 05:07:55;;;;;;;11.00;5.32;;;4.40;99.90;;;;;;5056323;28;20036;-73
2022/04/11 05:10:21;;;;;;;9.25;4.72;;;4.40;99.90;;;;;;5038521;28;20053;-73
2022/04/11 05:12:47;;;;;;;7.95;4.70;;;4.50;99.90;;;;;;5056422;28;20029;-73
2022/04/11 05:15:13;;;;;;;7.88;5.03;;;4.40;99.90;;;;;;5055558;28;20040;-75
2022/04/11 05:17:39;;;;;;;8.57;5.28;;;4.50;99.90;;;;;;5036678;28;20045;-76
2022/04/11 05:20:08;;;;;;;9.40;5.03;;;4.50;99.90;;;;;;5018942;28;20106;-75
2022/04/11 05:22:33;;;;;;;10.15;4.88;;;4.50;99.90;;;;;;5036148;28;20064;-75
2022/04/11 05:24:59;;;;;;;11.02;5.63;;;4.50;99.90;;;;;;5036042;28;20455;-73
2022/04/11 05:27:25;;;;;;;6.60;4.57;;;4.50;99.90;;;;;;5035974;28;20348;-75
2022/04/11 05:29:50;;;;;;;14.23;5.43;;;4.60;99.90;;;;;;5047487;28;20077;-75
2022/04/11 05:32:16;;;;;;;8.82;4.50;;;4.60;99.90;;;;;;5055752;28;20451;-74
2022/04/11 05:34:42;;;;;;;9.18;5.13;;;4.60;99.90;;;;;;5055799;28;20037;-72
2022/04/11 05:37:07;;;;;;;10.20;5.00;;;4.60;99.90;;;;;;5055453;28;20102;-74
2022/04/11 05:39:33;;;;;;;8.20;4.72;;;4.70;99.90;;;;;;5055592;28;20090;-74
2022/04/11 05:41:59;;;;;;;8.90;4.97;;;4.70;99.90;;;;;;5055242;28;20048;-74
2022/04/11 05:44:25;;;;;;;7.88;4.70;;;4.80;99.90;;;;;;5055668;28;20364;-74
2022/04/11 05:46:53;;;;;;;9.23;4.35;;;4.80;99.90;;;;;;5037970;28;20044;-74
2022/04/11 05:49:20;;;;;;;8.07;4.57;;;4.80;99.90;;;;;;5055163;28;20040;-73
2022/04/11 05:51:46;;;;;;;8.60;4.70;;;4.80;99.90;;;;;;5054824;28;20128;-74
2022/04/11 05:54:11;;;;;;;9.25;4.68;;;4.90;99.90;;;;;;5055505;28;20463;-74
2022/04/11 05:56:37;;;;;;;10.70;4.65;;;4.90;99.90;;;;;;5054782;28;20033;-74
2022/04/11 05:59:03;;;;;;;10.38;4.78;;;5.00;99.90;;;;;;5037316;28;20098;-73
2022/04/11 06:01:30;;;;;;;7.70;4.72;;;4.90;99.90;;;;;;5054494;28;20071;-73
2022/04/11 06:03:56;;;;;;;10.45;4.40;;;5.00;99.90;;;;;;5055198;28;20051;-74
2022/04/11 06:06:21;;;;;;;8.00;5.43;;;5.00;99.90;;;;;;5055076;28;20047;-73
2022/04/11 06:08:47;;;;;;;9.85;4.82;;;5.10;99.90;;;;;;5054772;28;20037;-73
2022/04/11 06:11:13;;;;;;;11.15;4.85;;;5.10;99.90;;;;;;5054815;28;20033;-74
2022/04/11 06:13:43;;;;;;;9.40;4.22;;;5.20;99.90;;;;;;5055066;28;20063;-74
2022/04/11 06:16:09;;;;;;;13.43;4.43;;;5.20;99.90;;;;;;5035024;28;20489;-73
2022/04/11 06:18:34;;;;;;;6.78;4.22;;;5.30;99.90;;;;;;5053835;28;20044;-74
2022/04/11 06:21:00;;;;;;;9.15;4.22;;;5.30;99.90;;;;;;5054840;28;20052;-74
2022/04/11 06:23:25;;;;;;;7.70;4.45;;;5.40;99.90;;;;;;5055217;28;20041;-74
2022/04/11 06:25:51;;;;;;;7.07;4.60;;;5.40;99.90;;;;;;5054378;28;20118;-74
2022/04/11 06:28:16;;;;;;;9.15;4.50;;;5.50;99.90;;;;;;5054777;28;20044;-74
2022/04/11 06:30:42;;;;;;;9.82;4.20;;;5.50;99.90;;;;;;5053796;28;20037;-74
2022/04/11 06:33:07;;;;;;;8.55;4.38;;;5.60;99.90;;;;;;5037372;28;20051;-74
2022/04/11 06:35:33;;;;;;;9.68;4.32;;;5.60;99.90;;;;;;5054851;28;20041;-74
2022/04/11 06:37:58;;;;;;;9.30;4.22;;;5.70;99.90;;;;;;5054786;28;20106;-74
2022/04/11 06:40:24;;;;;;;7.53;4.07;;;5.80;99.90;;;;;;5054671;28;20135;-74
2022/04/11 06:42:50;;;;;;;7.43;4.35;;;5.80;99.90;;;;;;5036769;28;20482;-74
2022/04/11 06:45:15;;;;;;;9.55;4.95;;;5.80;99.90;;;;;;5037436;28;20045;-73
2022/04/11 06:47:42;;;;;;;9.93;4.80;;;5.90;99.90;;;;;;5036739;28;20267;-73
2022/04/11 06:50:08;;;;;;;11.02;4.88;;;5.90;99.90;;;;;;5054619;28;20105;-74
2022/04/11 06:52:34;;;;;;;10.15;5.45;;;6.00;99.90;;;;;;5054633;28;20124;-74
2022/04/11 06:54:59;;;;;;;12.55;5.40;;;6.10;99.90;;;;;;5054709;28;20179;-75
2022/04/11 06:57:25;;;;;;;12.75;4.80;;;6.10;99.90;;;;;;5054201;28;20065;-74
2022/04/11 06:59:51;;;;;;;8.07;4.60;;;6.20;99.90;;;;;;5054589;28;20401;-73
2022/04/11 07:02:17;;;;;;;6.22;4.60;;;6.20;99.90;;;;;;5054417;28;20440;-75
2022/04/11 07:04:43;;;;;;;7.65;5.00;;;6.30;99.90;;;;;;5054470;28;20079;-74
2022/04/11 07:07:08;;;;;;;8.85;4.45;;;6.30;99.90;;;;;;5054428;28;20044;-75
2022/04/11 07:09:34;;;;;;;12.55;4.95;;;6.40;99.90;;;;;;5054611;28;20048;-75
2022/04/11 07:11:59;;;;;;;10.15;4.80;;;6.40;99.90;;;;;;5053947;28;20124;-73
2022/04/11 07:14:25;;;;;;;10.15;4.68;;;6.50;99.90;;;;;;5054036;28;20052;-73
2022/04/11 07:16:52;;;;;;;8.23;4.45;;;6.60;99.90;;;;;;5052197;28;20037;-75
2022/04/11 07:19:19;;;;;;;9.32;4.45;;;6.70;99.90;;;;;;5054339;28;20424;-75
2022/04/11 07:21:46;;;;;;;12.15;4.85;;;6.80;99.90;;;;;;5036930;28;20317;-75
2022/04/11 07:24:12;;;;;;;9.35;4.78;;;6.80;99.90;;;;;;5056786;28;20160;-76
2022/04/11 07:26:40;;;;;;;10.70;4.60;;;6.90;99.90;;;;;;5057291;28;20128;-76
2022/04/11 07:29:06;;;;;;;9.57;5.38;;;6.90;99.90;;;;;;5057887;28;20068;-73
2022/04/11 07:31:32;;;;;;;7.47;5.13;;;7.10;99.90;;;;;;5057820;28;20108;-75
2022/04/11 07:33:57;;;;;;;10.48;5.03;;;7.10;99.90;;;;;;5040524;28;20124;-73
2022/04/11 07:36:23;;;;;;;9.30;4.80;;;7.20;99.90;;;;;;5057942;28;20083;-73
2022/04/11 07:38:48;;;;;;;11.77;5.13;;;7.30;99.90;;;;;;5058087;28;20037;-74
2022/04/11 07:41:14;;;;;;;12.23;5.55;;;7.40;99.90;;;;;;5057437;28;20112;-74
2022/04/11 07:43:40;;;;;;;12.60;5.78;;;7.50;99.90;;;;;;5057193;28;20335;-74
2022/04/11 07:46:05;;;;;;;10.65;5.45;;;7.60;99.90;;;;;;5057159;28;20097;-74
2022/04/11 07:48:32;;;;;;;11.77;5.78;;;7.60;99.90;;;;;;5056633;28;20036;-75
2022/04/11 07:50:58;;;;;;;11.27;6.00;;;7.80;99.90;;;;;;5057636;28;20041;-74
2022/04/11 07:53:24;;;;;;;15.13;6.03;;;7.80;99.90;;;;;;5057229;28;20358;-74
2022/04/11 07:55:49;;;;;;;10.73;5.90;;;7.90;99.90;;;;;;5057082;28;20128;-73
2022/04/11 07:58:18;;;;;;;16.05;5.78;;;8.00;99.90;;;;;;5057273;28;20036;-74
2022/04/11 08:00:44;;;;;;;10.20;5.28;;;8.20;99.90;;;;;;5057500;28;20095;-74
2022/04/11 08:03:10;;;;;;;11.60;5.82;;;8.20;99.90;;;;;;5039844;28;20485;-74
2022/04/11 08:05:36;;;;;;;12.95;6.05;;;8.30;99.90;;;;;;5057533;28;20033;-74
2022/04/11 08:08:01;;;;;;;13.10;5.45;;;8.40;99.90;;;;;;5057100;28;20183;-74
2022/04/11 08:10:27;;;;;;;11.27;5.03;;;8.40;99.90;;;;;;5056938;28;20064;-74
2022/04/11 08:13:00;;;;;;;9.55;4.82;;;8.50;99.90;;;;;;5057251;28;20032;-74
2022/04/11 08:15:27;;;;;;;7.03;4.00;;;8.50;99.90;;;;;;5057095;28;20447;-74
2022/04/11 08:17:56;;;;;;;9.07;4.32;;;8.60;99.90;;;;;;5057460;28;20040;-74
2022/04/11 08:20:23;;;;;;;5.57;3.72;;;8.60;99.90;;;;;;5057438;28;20468;-74
2022/04/11 08:22:48;;;;;;;6.63;3.63;;;8.60;99.90;;;;;;5056467;28;20051;-75
2022/04/11 08:25:14;;;;;;;7.20;3.55;;;8.60;99.90;;;;;;5053453;28;20355;-74
2022/04/11 08:27:40;;;;;;;8.95;3.55;;;8.60;99.90;;;;;;5056942;28;20048;-74
2022/04/11 08:30:09;;;;;;;6.85;3.72;;;8.70;99.90;;;;;;5057260;28;20055;-74
2022/04/11 08:32:49;;;;;;;5.78;3.45;;;8.60;99.90;;;;;;5056870;28;20116;-74
2022/04/11 08:35:17;;;;;;;7.25;3.35;;;8.60;99.90;;;;;;5055236;28;20048;-74
2022/04/11 08:37:43;;;;;;;6.53;3.25;;;8.60;99.90;;;;;;5053341;28;20127;-74
2022/04/11 08:40:13;;;;;;;8.43;2.97;;;8.60;99.90;;;;;;5056658;28;20127;-74
2022/04/11 08:42:40;;;;;;;6.65;3.03;;;8.60;99.90;;;;;;5057053;28;20117;-73
2022/04/11 08:45:07;;;;;;;5.07;2.40;;;8.60;99.90;;;;;;5056733;28;20033;-74
2022/04/11 08:47:33;;;;;;;5.53;3.25;;;8.70;99.90;;;;;;5056765;28;20072;-74
2022/04/11 08:50:00;;;;;;;5.25;2.60;;;8.70;99.90;;;;;;5056674;28;20486;-74
2022/04/11 08:52:27;;;;;;;6.82;2.58;;;8.70;99.90;;;;;;5055791;28;20355;-74
2022/04/11 08:54:53;;;;;;;4.65;2.50;;;8.80;99.90;;;;;;5056174;28;20385;-74
2022/04/11 08:57:19;;;;;;;4.85;2.42;;;8.80;99.90;;;;;;5056575;28;20052;-74
2022/04/11 08:59:44;;;;;;;3.25;2.13;;;8.90;99.90;;;;;;5056300;28;20056;-74
2022/04/11 09:02:10;;;;;;;3.17;2.20;;;8.90;99.90;;;;;;5056453;28;20071;-74
2022/04/11 09:04:54;;;;;;;4.65;2.30;;;8.90;99.90;;;;;;5056178;28;20040;-74
2022/04/11 09:07:19;;;;;;;4.95;2.40;;;8.90;99.90;;;;;;5055685;28;20041;-74
2022/04/11 09:09:45;;;;;;;5.78;2.30;;;8.90;99.90;;;;;;5022293;28;20202;-74
2022/04/11 09:12:16;;;;;;;4.43;2.40;;;9.00;99.90;;;;;;5056045;28;20041;-74
2022/04/11 09:14:42;;;;;;;5.80;2.30;;;9.10;99.90;;;;;;5056074;28;20458;-74
2022/04/11 09:17:11;;;;;;;5.20;2.65;;;9.10;99.90;;;;;;5055224;28;20052;-75
2022/04/11 09:19:38;;;;;;;6.82;2.45;;;9.10;99.90;;;;;;5056011;28;20186;-75
2022/04/11 09:22:07;;;;;;;6.10;2.45;;;9.20;99.90;;;;;;5038672;28;20446;-75
2022/04/11 09:24:33;;;;;;;4.70;2.75;;;9.20;99.90;;;;;;5038338;28;20122;-76
2022/04/11 09:26:59;;;;;;;4.95;3.28;;;9.30;99.90;;;;;;5055712;28;20351;-76
2022/04/11 09:29:32;;;;;;;4.78;2.75;;;9.30;99.90;;;;;;5038310;28;20045;-77
2022/04/11 09:32:05;;;;;;;7.85;3.22;;;9.40;99.90;;;;;;5038064;28;20120;-75
2022/04/11 09:34:31;;;;;;;7.05;3.50;;;9.40;99.90;;;;;;5052795;28;20095;-75
2022/04/11 09:37:01;;;;;;;9.43;3.63;;;9.50;99.90;;;;;;5055786;28;20072;-75
2022/04/11 09:39:30;;;;;;;7.65;3.10;;;9.60;99.90;;;;;;5038417;28;20045;-76
2022/04/11 09:41:55;;;;;;;5.63;2.88;;;9.70;99.90;;;;;;5038115;28;20140;-76
2022/04/11 09:44:29;;;;;;;9.98;3.55;;;9.70;99.90;;;;;;5055559;28;20498;-76
2022/04/11 09:47:00;;;;;;;7.72;3.47;;;9.80;99.90;;;;;;5037520;28;20115;-76
2022/04/11 09:49:27;;;;;;;5.55;3.03;;;9.80;99.90;;;;;;5055470;28;20052;-76
2022/04/11 09:52:16;;;;;;;4.38;3.20;;;9.90;99.90;;;;;;5021672;28;20052;-76
2022/04/11 09:54:47;;;;;;;5.45;2.72;;;10.00;99.90;;;;;;5021194;28;20041;-75
2022/04/11 09:57:18;;;;;;;6.93;3.60;;;10.00;99.90;;;;;;5055133;28;20458;-74
2022/04/11 09:59:45;;;;;;;7.95;2.85;;;10.10;99.90;;;;;;5054686;28;20143;-76
2022/04/11 10:02:12;;;;;;;10.02;2.67;;;10.20;99.90;;;;;;5055294;28;20045;-76
2022/04/11 10:04:39;;;;;;;7.55;3.42;;;10.20;99.90;;;;;;5054755;28;20051;-76
2022/04/11 10:07:08;;;;;;;7.88;3.55;;;10.30;99.90;;;;;;5053608;28;20107;-76
2022/04/11 10:09:35;;;;;;;5.32;3.47;;;10.30;99.90;;;;;;5054394;28;20442;-76
2022/04/11 10:12:02;;;;;;;6.90;4.03;;;10.30;99.90;;;;;;5054624;28;20063;-76
2022/04/11 10:14:27;;;;;;;6.93;3.92;;;10.30;99.90;;;;;;5036748;28;20032;-76
2022/04/11 10:16:56;;;;;;;9.00;3.38;;;10.40;99.90;;;;;;5053138;28;20045;-73
2022/04/11 10:19:29;;;;;;;11.55;3.90;;;10.40;99.90;;;;;;5054760;28;20037;-73
2022/04/11 10:21:58;;;;;;;8.05;3.80;;;10.40;99.90;;;;;;5054131;28;20083;-74
2022/04/11 10:24:23;;;;;;;5.30;3.45;;;10.50;99.90;;;;;;5054572;28;20044;-74
2022/04/11 10:26:56;;;;;;;6.80;4.28;;;10.60;99.90;;;;;;5054274;28;20052;-73
2022/04/11 10:29:40;;;;;;;7.93;4.55;;;10.60;99.90;;;;;;5037493;28;20095;-74
2022/04/11 10:32:19;;;;;;;7.30;3.65;;;10.60;99.90;;;;;;5037160;28;20033;-75
2022/04/11 10:35:00;;;;;;;5.30;3.35;;;10.70;99.90;;;;;;5054509;28;20041;-75
2022/04/11 10:37:39;;;;;;;5.35;3.13;;;10.80;99.90;;;;;;5054769;28;20041;-75
2022/04/11 10:40:16;;;;;;;7.30;3.95;;;10.80;99.90;;;;;;5054234;28;20447;-75
2022/04/11 10:43:00;;;;;;;7.13;3.80;;;10.90;99.90;;;;;;5054303;28;20049;-75
2022/04/11 10:45:31;;;;;;;6.88;3.90;;;11.10;99.90;;;;;;5037005;28;20103;-76
2022/04/11 10:47:57;;;;;;;5.85;3.80;;;11.00;99.90;;;;;;5037094;28;20068;-73
2022/04/11 10:50:32;;;;;;;5.68;3.70;;;11.10;99.90;;;;;;5054717;28;20120;-75
2022/04/11 10:53:11;;;;;;;6.60;3.70;;;11.10;99.90;;;;;;5054205;28;20112;-75
2022/04/11 10:56:10;;;;;;;6.00;3.97;;;11.00;99.90;;;;;;5053602;28;20032;-75
2022/04/11 10:58:48;;;;;;;7.32;3.95;;;11.10;99.90;;;;;;5055489;28;20106;-75
2022/04/11 11:01:35;;;;;;;5.15;3.78;;;11.10;99.90;;;;;;5058545;28;20033;-75
2022/04/11 11:04:19;;;;;;;8.95;4.10;;;11.20;99.90;;;;;;5058540;28;20044;-75
2022/04/11 11:06:45;;;;;;;6.45;4.18;;;11.20;99.90;;;;;;5058571;28;20037;-75
2022/04/11 11:09:15;;;;;;;6.90;3.90;;;11.30;99.90;;;;;;5058368;28;20040;-75
2022/04/11 11:11:41;;;;;;;6.53;3.67;;;11.40;99.90;;;;;;5038306;28;20049;-75
2022/04/11 11:14:41;;;;;;;7.57;3.65;;;11.40;99.90;;;;;;5038195;28;20048;-75
2022/04/11 11:17:07;;;;;;;7.43;4.10;;;11.50;99.90;;;;;;5038655;28;20051;-75
2022/04/11 11:20:08;;;;;;;6.38;3.83;;;11.60;99.90;;;;;;5038368;28;20120;-75
2022/04/11 11:23:11;;;;;;;9.55;4.07;;;11.60;99.90;;;;;;5038345;28;20384;-74
2022/04/11 11:25:36;;;;;;;8.75;3.65;;;11.60;99.90;;;;;;5031420;28;20347;-75
2022/04/11 11:28:03;;;;;;;6.90;4.00;;;11.70;99.90;;;;;;5035367;28;20060;-75
2022/04/11 11:30:29;;;;;;;6.72;4.00;;;11.70;99.90;;;;;;5038043;28;20095;-75
2022/04/11 11:33:01;;;;;;;6.40;4.05;;;11.80;99.90;;;;;;5038070;28;20041;-75
2022/04/11 11:35:28;;;;;;;10.00;5.30;;;11.90;99.90;;;;;;5038009;28;20037;-75
2022/04/11 11:38:04;;;;;;;7.35;4.40;;;11.90;99.90;;;;;;5037967;28;20049;-75
2022/04/11 11:40:29;;;;;;;8.35;4.50;;;12.00;99.90;;;;;;5053013;28;20044;-75
2022/04/11 11:42:56;;;;;;;10.13;4.97;;;12.10;99.90;;;;;;5057695;28;20329;-75
2022/04/11 11:45:28;;;;;;;10.15;5.28;;;12.20;99.90;;;;;;5040142;28;20094;-75
2022/04/11 11:47:54;;;;;;;9.20;5.95;;;12.10;99.90;;;;;;5040002;28;20041;-75
2022/04/11 11:50:20;;;;;;;8.75;5.28;;;12.20;99.90;;;;;;5057261;28;20116;-75
2022/04/11 11:52:58;;;;;;;8.93;4.03;;;12.30;99.90;;;;;;5058034;28;20036;-75
2022/04/11 11:55:24;;;;;;;6.35;4.55;;;12.30;99.90;;;;;;5039596;28;20048;-75
2022/04/11 11:58:05;;;;;;;8.32;5.80;;;12.40;99.90;;;;;;5039848;28;20132;-74
2022/04/11 12:00:34;;;;;;;10.38;6.15;;;12.50;99.90;;;;;;5057042;28;20447;-75
2022/04/11 12:05:44;;;;;;;11.65;7.45;;;12.60;99.90;;;;;;5057441;28;20041;-75
2022/04/11 12:08:17;;;;;;;9.23;5.72;;;12.60;99.90;;;;;;5057302;28;20443;-75
2022/04/11 12:10:44;;;;;;;8.57;5.82;;;12.80;99.90;;;;;;5057068;28;20091;-75
2022/04/11 12:13:10;;;;;;;10.48;5.90;;;13.00;99.90;;;;;;5040083;28;20044;-75
2022/04/11 12:15:36;;;;;;;9.20;5.50;;;13.10;99.90;;;;;;5056815;28;20057;-75
2022/04/11 12:18:08;;;;;;;8.93;5.03;;;13.10;99.90;;;;;;5057168;28;20037;-75
2022/04/11 12:20:35;;;;;;;8.35;4.72;;;13.10;99.90;;;;;;5056925;28;20033;-75
2022/04/11 12:23:10;;;;;;;7.15;4.78;;;13.20;99.90;;;;;;5056984;28;20037;-75
2022/04/11 12:25:54;;;;;;;7.93;4.53;;;13.40;99.90;;;;;;5057464;28;20052;-75
2022/04/11 12:28:27;;;;;;;8.05;5.03;;;13.50;99.90;;;;;;5056705;28;20049;-75
2022/04/11 12:31:02;;;;;;;9.05;5.05;;;13.50;99.90;;;;;;5044817;28;20167;-75
2022/04/11 12:33:37;;;;;;;7.43;4.78;;;13.70;99.90;;;;;;5056959;28;20087;-75
2022/04/11 12:36:11;;;;;;;7.90;5.13;;;13.70;99.90;;;;;;5039438;28;20106;-75
2022/04/11 12:38:45;;;;;;;11.95;5.80;;;13.80;99.90;;;;;;5039672;28;20060;-75
2022/04/11 12:41:36;;;;;;;11.88;6.50;;;13.80;99.90;;;;;;5057113;28;20120;-75
2022/04/11 12:44:20;;;;;;;8.88;5.50;;;14.00;99.90;;;;;;5056181;28;20439;-75
2022/04/11 12:46:48;;;;;;;7.15;4.95;;;14.10;99.90;;;;;;5056557;28;20044;-75
2022/04/11 12:49:18;;;;;;;6.47;4.50;;;14.20;99.90;;;;;;5039615;28;20079;-75
2022/04/11 12:51:57;;;;;;;7.13;4.65;;;14.30;99.90;;;;;;5053820;28;20083;-75
2022/04/11 12:54:22;;;;;;;9.32;5.30;;;14.50;99.90;;;;;;5056363;28;20137;-75
2022/04/11 12:56:51;;;;;;;9.38;4.65;;;14.40;99.90;;;;;;5056539;28;20076;-75
2022/04/11 12:59:31;;;;;;;9.88;4.93;;;14.50;99.90;;;;;;5038189;28;20458;-75
2022/04/11 13:02:08;;;;;;;7.03;5.00;;;14.70;99.90;;;;;;5053879;28;20469;-75
2022/04/11 13:04:36;;;;;;;7.10;4.53;;;14.80;99.90;;;;;;5056208;28;20086;-75
2022/04/11 13:07:03;;;;;;;9.02;4.47;;;14.90;99.90;;;;;;5038950;28;20049;-75